Time,TemperatureF,DewpointF,PressureIn,WindDirection,WindDirectionDegrees,WindSpeedMPH,WindSpeedGustMPH,Humidity,HourlyPrecipIn,Conditions,Clouds,dailyrainin,SoftwareType,DateUTC
2013-07-09 12:00:00,53.0,47.0,30.04,SSE,160,23.0,38.0,79,-99.99,,,-99.99,,2013-07-09 20:00:00,
2013-07-09 12:52:00,53.0,47.0,30.04,SSE,160,23.0,38.0,79,-99.99,,,-99.99,,2013-07-09 20:52:00,
2013-07-09 13:00:00,54.0,49.0,30.05,South,170,20.0,31.0,83,-99.99,,,-99.99,,2013-07-09 21:00:00,
2013-07-09 13:52:00,54.0,49.0,30.05,South,170,20.0,31.0,83,-99.99,,,-99.99,,2013-07-09 21:52:00,
2013-07-09 14:00:00,54.0,49.0,30.04,SSE,160,23.0,37.0,83,-99.99,,,-99.99,,2013-07-09 22:00:00,
2013-07-09 14:53:00,54.0,49.0,30.04,SSE,160,23.0,37.0,83,-99.99,,,-99.99,,2013-07-09 22:53:00,
2013-07-09 15:00:00,54.0,49.0,30.05,South,170,25.0,35.0,83,-99.99,,,-99.99,,2013-07-09 23:00:00,
2013-07-09 15:52:00,54.0,49.0,30.05,South,170,25.0,35.0,83,-99.99,,,-99.99,,2013-07-09 23:52:00,
2013-07-09 16:00:00,54.0,49.0,30.04,South,180,27.0,36.0,83,-99.99,,,-99.99,,2013-07-10 00:00:00,
2013-07-09 16:52:00,54.0,49.0,30.04,South,180,27.0,36.0,83,-99.99,,,-99.99,,2013-07-10 00:52:00,
2013-07-09 18:00:00,54.0,48.0,30.02,South,180,27.0,33.0,80,-99.99,,,-99.99,,2013-07-10 02:00:00,
2013-07-09 18:53:00,54.0,48.0,30.02,South,180,27.0,33.0,80,-99.99,,,-99.99,,2013-07-10 02:53:00,
2013-07-09 19:00:00,54.0,48.0,30.02,South,170,25.0,33.0,80,-99.99,,,-99.99,,2013-07-10 03:00:00,
2013-07-09 19:52:00,54.0,48.0,30.02,South,170,25.0,33.0,80,-99.99,,,-99.99,,2013-07-10 03:52:00,
2013-07-09 20:00:00,53.0,48.0,30.01,South,190,23.0,33.0,82,-99.99,,,-99.99,,2013-07-10 04:00:00,
2013-07-09 20:52:00,53.0,48.0,30.01,South,190,23.0,33.0,82,-99.99,,,-99.99,,2013-07-10 04:52:00,
2013-07-09 21:00:00,54.0,48.0,30.01,South,190,23.0,31.0,80,-99.99,,,-99.99,,2013-07-10 05:00:00,
2013-07-09 21:52:00,54.0,48.0,30.01,South,190,23.0,31.0,80,-99.99,,,-99.99,,2013-07-10 05:52:00,
2013-07-09 22:00:00,53.0,49.0,30.02,SSE,160,15.0,28.0,85,-99.99,,,-99.99,,2013-07-10 06:00:00,
2013-07-09 22:52:00,53.0,49.0,30.02,SSE,160,15.0,28.0,85,-99.99,,,-99.99,,2013-07-10 06:52:00,
2013-07-09 23:00:00,53.0,49.0,30.02,SSE,160,8.0,18.0,85,-99.99,,,-99.99,,2013-07-10 07:00:00,
2013-07-09 23:53:00,53.0,49.0,30.02,SSE,160,8.0,18.0,85,-99.99,,,-99.99,,2013-07-10 07:53:00,